sensor_id;sensor_type;location;lat;lon;timestamp;P1;durP1;ratioP1;P2;durP2;ratioP2
7051;SDS011;3567;52.444;13.556;2023-04-24T00:00:54;4.90;;;3.95;;
7051;SDS011;3567;52.444;13.556;2023-04-24T00:03:21;4.63;;;4.03;;
7051;SDS011;3567;52.444;13.556;2023-04-24T00:05:49;4.93;;;3.95;;
7051;SDS011;3567;52.444;13.556;2023-04-24T00:08:16;6.43;;;4.57;;
7051;SDS011;3567;52.444;13.556;2023-04-24T00:10:41;4.55;;;4.15;;
7051;SDS011;3567;52.444;13.556;2023-04-24T00:13:07;6.03;;;4.57;;
7051;SDS011;3567;52.444;13.556;2023-04-24T00:15:33;4.80;;;4.40;;
7051;SDS011;3567;52.444;13.556;2023-04-24T00:17:58;5.20;;;4.80;;
7051;SDS011;3567;52.444;13.556;2023-04-24T00:20:24;4.75;;;4.35;;
7051;SDS011;3567;52.444;13.556;2023-04-24T00:22:49;5.18;;;4.78;;
7051;SDS011;3567;52.444;13.556;2023-04-24T00:25:14;5.03;;;4.63;;
7051;SDS011;3567;52.444;13.556;2023-04-24T00:27:40;5.53;;;4.82;;
7051;SDS011;3567;52.444;13.556;2023-04-24T00:30:05;5.43;;;5.03;;
7051;SDS011;3567;52.444;13.556;2023-04-24T00:32:31;5.30;;;4.90;;
7051;SDS011;3567;52.444;13.556;2023-04-24T00:34:57;5.10;;;4.70;;
7051;SDS011;3567;52.444;13.556;2023-04-24T00:37:22;5.22;;;4.72;;
7051;SDS011;3567;52.444;13.556;2023-04-24T00:39:47;5.18;;;4.78;;
7051;SDS011;3567;52.444;13.556;2023-04-24T00:42:13;4.80;;;4.50;;
7051;SDS011;3567;52.444;13.556;2023-04-24T00:44:38;7.70;;;5.45;;
7051;SDS011;3567;52.444;13.556;2023-04-24T00:47:04;6.13;;;5.53;;
7051;SDS011;3567;52.444;13.556;2023-04-24T00:49:30;5.95;;;5.40;;
7051;SDS011;3567;52.444;13.556;2023-04-24T00:51:55;5.82;;;5.32;;
7051;SDS011;3567;52.444;13.556;2023-04-24T00:54:21;5.55;;;5.00;;
7051;SDS011;3567;52.444;13.556;2023-04-24T00:56:47;5.93;;;5.35;;
7051;SDS011;3567;52.444;13.556;2023-04-24T00:59:13;5.38;;;4.90;;
7051;SDS011;3567;52.444;13.556;2023-04-24T01:01:41;7.47;;;4.90;;
7051;SDS011;3567;52.444;13.556;2023-04-24T01:04:07;5.63;;;4.97;;
7051;SDS011;3567;52.444;13.556;2023-04-24T01:06:35;4.95;;;4.55;;
7051;SDS011;3567;52.444;13.556;2023-04-24T01:09:04;6.50;;;5.90;;
7051;SDS011;3567;52.444;13.556;2023-04-24T01:11:30;5.85;;;5.20;;
7051;SDS011;3567;52.444;13.556;2023-04-24T01:13:56;6.13;;;5.63;;
7051;SDS011;3567;52.444;13.556;2023-04-24T01:16:22;5.60;;;5.20;;
7051;SDS011;3567;52.444;13.556;2023-04-24T01:18:47;6.53;;;5.93;;
7051;SDS011;3567;52.444;13.556;2023-04-24T01:21:14;6.30;;;5.80;;
7051;SDS011;3567;52.444;13.556;2023-04-24T01:23:41;6.78;;;6.18;;
7051;SDS011;3567;52.444;13.556;2023-04-24T01:26:10;5.70;;;5.20;;
7051;SDS011;3567;52.444;13.556;2023-04-24T01:28:36;7.05;;;6.05;;
7051;SDS011;3567;52.444;13.556;2023-04-24T01:31:02;6.28;;;5.80;;
7051;SDS011;3567;52.444;13.556;2023-04-24T01:33:27;6.93;;;5.72;;
7051;SDS011;3567;52.444;13.556;2023-04-24T01:35:53;5.75;;;5.25;;
7051;SDS011;3567;52.444;13.556;2023-04-24T01:38:19;5.57;;;5.15;;
7051;SDS011;3567;52.444;13.556;2023-04-24T01:40:45;5.90;;;4.80;;
7051;SDS011;3567;52.444;13.556;2023-04-24T01:43:11;6.07;;;5.57;;
7051;SDS011;3567;52.444;13.556;2023-04-24T01:45:37;5.55;;;5.15;;
7051;SDS011;3567;52.444;13.556;2023-04-24T01:48:03;7.63;;;5.28;;
7051;SDS011;3567;52.444;13.556;2023-04-24T01:50:28;5.43;;;4.97;;
7051;SDS011;3567;52.444;13.556;2023-04-24T01:52:53;5.72;;;5.22;;
7051;SDS011;3567;52.444;13.556;2023-04-24T01:55:19;6.28;;;5.78;;
7051;SDS011;3567;52.444;13.556;2023-04-24T01:57:44;6.20;;;5.60;;
7051;SDS011;3567;52.444;13.556;2023-04-24T02:00:10;6.78;;;4.80;;
7051;SDS011;3567;52.444;13.556;2023-04-24T02:02:36;5.53;;;5.13;;
7051;SDS011;3567;52.444;13.556;2023-04-24T02:05:03;5.72;;;5.22;;
7051;SDS011;3567;52.444;13.556;2023-04-24T02:07:31;6.35;;;5.53;;
7051;SDS011;3567;52.444;13.556;2023-04-24T02:09:57;5.90;;;5.30;;
7051;SDS011;3567;52.444;13.556;2023-04-24T02:12:23;6.30;;;5.70;;
7051;SDS011;3567;52.444;13.556;2023-04-24T02:14:48;6.35;;;5.75;;
7051;SDS011;3567;52.444;13.556;2023-04-24T02:17:13;5.50;;;5.10;;
7051;SDS011;3567;52.444;13.556;2023-04-24T02:19:40;6.20;;;5.80;;
7051;SDS011;3567;52.444;13.556;2023-04-24T02:22:05;9.20;;;8.32;;
7051;SDS011;3567;52.444;13.556;2023-04-24T02:24:31;5.95;;;5.45;;
7051;SDS011;3567;52.444;13.556;2023-04-24T02:26:56;6.50;;;5.80;;
7051;SDS011;3567;52.444;13.556;2023-04-24T02:29:22;9.73;;;8.73;;
7051;SDS011;3567;52.444;13.556;2023-04-24T02:31:48;8.65;;;6.60;;
7051;SDS011;3567;52.444;13.556;2023-04-24T02:34:13;7.75;;;7.03;;
7051;SDS011;3567;52.444;13.556;2023-04-24T02:36:39;6.65;;;6.15;;
7051;SDS011;3567;52.444;13.556;2023-04-24T02:39:04;7.50;;;5.90;;
7051;SDS011;3567;52.444;13.556;2023-04-24T02:41:30;6.35;;;5.85;;
7051;SDS011;3567;52.444;13.556;2023-04-24T02:43:57;6.15;;;5.68;;
7051;SDS011;3567;52.444;13.556;2023-04-24T02:46:23;6.47;;;5.88;;
7051;SDS011;3567;52.444;13.556;2023-04-24T02:48:49;6.78;;;6.18;;
7051;SDS011;3567;52.444;13.556;2023-04-24T02:51:14;6.32;;;5.82;;
7051;SDS011;3567;52.444;13.556;2023-04-24T02:53:40;7.53;;;6.93;;
7051;SDS011;3567;52.444;13.556;2023-04-24T02:56:05;6.13;;;5.63;;
7051;SDS011;3567;52.444;13.556;2023-04-24T02:58:31;6.18;;;5.68;;
7051;SDS011;3567;52.444;13.556;2023-04-24T03:00:56;5.78;;;5.38;;
7051;SDS011;3567;52.444;13.556;2023-04-24T03:03:21;6.68;;;6.18;;
7051;SDS011;3567;52.444;13.556;2023-04-24T03:05:47;6.38;;;5.90;;
7051;SDS011;3567;52.444;13.556;2023-04-24T03:08:13;6.05;;;5.60;;
7051;SDS011;3567;52.444;13.556;2023-04-24T03:10:39;7.03;;;6.32;;
7051;SDS011;3567;52.444;13.556;2023-04-24T03:13:04;7.45;;;6.85;;
7051;SDS011;3567;52.444;13.556;2023-04-24T03:15:30;6.72;;;6.22;;
7051;SDS011;3567;52.444;13.556;2023-04-24T03:17:55;6.38;;;5.82;;
7051;SDS011;3567;52.444;13.556;2023-04-24T03:20:21;7.13;;;6.43;;
7051;SDS011;3567;52.444;13.556;2023-04-24T03:22:46;6.38;;;5.78;;
7051;SDS011;3567;52.444;13.556;2023-04-24T03:25:12;6.60;;;5.85;;
7051;SDS011;3567;52.444;13.556;2023-04-24T03:27:37;6.70;;;6.10;;
7051;SDS011;3567;52.444;13.556;2023-04-24T03:30:03;6.07;;;5.47;;
7051;SDS011;3567;52.444;13.556;2023-04-24T03:32:28;7.47;;;6.88;;
7051;SDS011;3567;52.444;13.556;2023-04-24T03:34:54;6.88;;;6.00;;
7051;SDS011;3567;52.444;13.556;2023-04-24T03:37:19;7.20;;;6.50;;
7051;SDS011;3567;52.444;13.556;2023-04-24T03:39:45;7.20;;;6.60;;
7051;SDS011;3567;52.444;13.556;2023-04-24T03:42:10;6.47;;;6.00;;
7051;SDS011;3567;52.444;13.556;2023-04-24T03:44:36;6.32;;;5.82;;
7051;SDS011;3567;52.444;13.556;2023-04-24T03:47:01;7.00;;;6.40;;
7051;SDS011;3567;52.444;13.556;2023-04-24T03:49:26;6.30;;;5.70;;
7051;SDS011;3567;52.444;13.556;2023-04-24T03:51:52;6.05;;;5.65;;
7051;SDS011;3567;52.444;13.556;2023-04-24T03:54:17;6.28;;;5.68;;
7051;SDS011;3567;52.444;13.556;2023-04-24T03:56:43;6.97;;;6.35;;
7051;SDS011;3567;52.444;13.556;2023-04-24T03:59:09;8.18;;;6.47;;
7051;SDS011;3567;52.444;13.556;2023-04-24T04:01:34;6.07;;;5.68;;
7051;SDS011;3567;52.444;13.556;2023-04-24T04:04:04;6.85;;;6.15;;
7051;SDS011;3567;52.444;13.556;2023-04-24T04:06:30;6.20;;;5.70;;
7051;SDS011;3567;52.444;13.556;2023-04-24T04:08:56;6.00;;;5.57;;
7051;SDS011;3567;52.444;13.556;2023-04-24T04:11:22;5.82;;;5.28;;
7051;SDS011;3567;52.444;13.556;2023-04-24T04:13:47;6.35;;;5.85;;
7051;SDS011;3567;52.444;13.556;2023-04-24T04:16:13;6.40;;;5.80;;
7051;SDS011;3567;52.444;13.556;2023-04-24T04:18:38;5.75;;;5.32;;
7051;SDS011;3567;52.444;13.556;2023-04-24T04:21:04;6.93;;;6.43;;
7051;SDS011;3567;52.444;13.556;2023-04-24T04:23:29;6.53;;;5.88;;
7051;SDS011;3567;52.444;13.556;2023-04-24T04:25:55;6.80;;;6.15;;
7051;SDS011;3567;52.444;13.556;2023-04-24T04:28:20;8.32;;;6.28;;
7051;SDS011;3567;52.444;13.556;2023-04-24T04:30:46;7.55;;;6.22;;
7051;SDS011;3567;52.444;13.556;2023-04-24T04:33:12;7.22;;;6.55;;
7051;SDS011;3567;52.444;13.556;2023-04-24T04:35:38;7.32;;;6.70;;
7051;SDS011;3567;52.444;13.556;2023-04-24T04:38:03;8.52;;;6.35;;
7051;SDS011;3567;52.444;13.556;2023-04-24T04:40:29;6.90;;;6.20;;
7051;SDS011;3567;52.444;13.556;2023-04-24T04:42:55;7.28;;;6.20;;
7051;SDS011;3567;52.444;13.556;2023-04-24T04:45:20;7.70;;;7.00;;
7051;SDS011;3567;52.444;13.556;2023-04-24T04:47:46;7.82;;;6.95;;
7051;SDS011;3567;52.444;13.556;2023-04-24T04:50:12;10.45;;;6.57;;
7051;SDS011;3567;52.444;13.556;2023-04-24T04:52:38;7.60;;;5.97;;
7051;SDS011;3567;52.444;13.556;2023-04-24T04:55:04;9.00;;;7.00;;
7051;SDS011;3567;52.444;13.556;2023-04-24T04:57:30;7.70;;;6.53;;
7051;SDS011;3567;52.444;13.556;2023-04-24T04:59:55;8.00;;;6.20;;
7051;SDS011;3567;52.444;13.556;2023-04-24T05:02:21;10.25;;;6.47;;
7051;SDS011;3567;52.444;13.556;2023-04-24T05:04:46;5.38;;;4.97;;
7051;SDS011;3567;52.444;13.556;2023-04-24T05:07:11;7.38;;;5.63;;
7051;SDS011;3567;52.444;13.556;2023-04-24T05:09:37;5.55;;;5.05;;
7051;SDS011;3567;52.444;13.556;2023-04-24T05:12:02;6.82;;;5.32;;
7051;SDS011;3567;52.444;13.556;2023-04-24T05:14:28;5.00;;;4.60;;
7051;SDS011;3567;52.444;13.556;2023-04-24T05:16:53;5.55;;;5.05;;
7051;SDS011;3567;52.444;13.556;2023-04-24T05:19:18;4.22;;;3.95;;
7051;SDS011;3567;52.444;13.556;2023-04-24T05:21:44;4.38;;;4.07;;
7051;SDS011;3567;52.444;13.556;2023-04-24T05:24:10;4.35;;;4.05;;
7051;SDS011;3567;52.444;13.556;2023-04-24T05:26:35;4.20;;;3.90;;
7051;SDS011;3567;52.444;13.556;2023-04-24T05:29:01;3.70;;;3.47;;
7051;SDS011;3567;52.444;13.556;2023-04-24T05:31:27;3.47;;;3.20;;
7051;SDS011;3567;52.444;13.556;2023-04-24T05:33:52;3.45;;;2.92;;
7051;SDS011;3567;52.444;13.556;2023-04-24T05:36:18;3.08;;;2.78;;
7051;SDS011;3567;52.444;13.556;2023-04-24T05:38:43;3.67;;;3.40;;
7051;SDS011;3567;52.444;13.556;2023-04-24T05:41:08;3.85;;;3.10;;
7051;SDS011;3567;52.444;13.556;2023-04-24T05:43:34;3.33;;;2.90;;
7051;SDS011;3567;52.444;13.556;2023-04-24T05:45:59;4.53;;;2.83;;
7051;SDS011;3567;52.444;13.556;2023-04-24T05:48:25;2.50;;;2.30;;
7051;SDS011;3567;52.444;13.556;2023-04-24T05:50:50;3.42;;;2.35;;
7051;SDS011;3567;52.444;13.556;2023-04-24T05:53:17;2.90;;;2.70;;
7051;SDS011;3567;52.444;13.556;2023-04-24T05:55:43;2.10;;;2.00;;
7051;SDS011;3567;52.444;13.556;2023-04-24T05:58:08;3.42;;;2.33;;
7051;SDS011;3567;52.444;13.556;2023-04-24T06:00:34;2.97;;;2.17;;
7051;SDS011;3567;52.444;13.556;2023-04-24T06:03:00;1.98;;;1.83;;
7051;SDS011;3567;52.444;13.556;2023-04-24T06:05:25;1.73;;;1.63;;
7051;SDS011;3567;52.444;13.556;2023-04-24T06:07:51;1.38;;;1.27;;
7051;SDS011;3567;52.444;13.556;2023-04-24T06:10:16;1.35;;;1.33;;
7051;SDS011;3567;52.444;13.556;2023-04-24T06:12:42;1.00;;;0.85;;
7051;SDS011;3567;52.444;13.556;2023-04-24T06:15:07;1.75;;;1.65;;
7051;SDS011;3567;52.444;13.556;2023-04-24T06:17:33;2.63;;;1.30;;
7051;SDS011;3567;52.444;13.556;2023-04-24T06:19:59;1.45;;;1.30;;
7051;SDS011;3567;52.444;13.556;2023-04-24T06:22:24;1.98;;;1.45;;
7051;SDS011;3567;52.444;13.556;2023-04-24T06:24:49;1.40;;;1.25;;
7051;SDS011;3567;52.444;13.556;2023-04-24T06:27:15;2.90;;;1.30;;
7051;SDS011;3567;52.444;13.556;2023-04-24T06:29:40;1.33;;;1.20;;
7051;SDS011;3567;52.444;13.556;2023-04-24T06:32:05;1.00;;;1.00;;
7051;SDS011;3567;52.444;13.556;2023-04-24T06:34:31;4.97;;;4.55;;
7051;SDS011;3567;52.444;13.556;2023-04-24T06:36:57;1.13;;;1.02;;
7051;SDS011;3567;52.444;13.556;2023-04-24T06:39:23;3.28;;;1.17;;
7051;SDS011;3567;52.444;13.556;2023-04-24T06:41:48;1.00;;;0.98;;
7051;SDS011;3567;52.444;13.556;2023-04-24T06:44:14;2.15;;;1.00;;
7051;SDS011;3567;52.444;13.556;2023-04-24T06:46:39;0.90;;;0.80;;
7051;SDS011;3567;52.444;13.556;2023-04-24T06:49:06;1.85;;;0.70;;
7051;SDS011;3567;52.444;13.556;2023-04-24T06:51:31;1.42;;;0.98;;
7051;SDS011;3567;52.444;13.556;2023-04-24T06:53:58;1.63;;;0.80;;
7051;SDS011;3567;52.444;13.556;2023-04-24T06:56:24;0.60;;;0.60;;
7051;SDS011;3567;52.444;13.556;2023-04-24T06:58:50;0.63;;;0.63;;
7051;SDS011;3567;52.444;13.556;2023-04-24T07:01:16;0.60;;;0.57;;
7051;SDS011;3567;52.444;13.556;2023-04-24T07:03:41;0.93;;;0.57;;
7051;SDS011;3567;52.444;13.556;2023-04-24T07:06:07;0.55;;;0.52;;
7051;SDS011;3567;52.444;13.556;2023-04-24T07:08:34;1.10;;;0.60;;
7051;SDS011;3567;52.444;13.556;2023-04-24T07:11:00;0.50;;;0.50;;
7051;SDS011;3567;52.444;13.556;2023-04-24T07:13:26;1.55;;;0.75;;
7051;SDS011;3567;52.444;13.556;2023-04-24T07:15:53;3.10;;;0.60;;
7051;SDS011;3567;52.444;13.556;2023-04-24T07:18:20;1.77;;;0.60;;
7051;SDS011;3567;52.444;13.556;2023-04-24T07:20:46;1.67;;;0.50;;
7051;SDS011;3567;52.444;13.556;2023-04-24T07:23:11;0.50;;;0.50;;
7051;SDS011;3567;52.444;13.556;2023-04-24T07:25:37;0.45;;;0.45;;
7051;SDS011;3567;52.444;13.556;2023-04-24T07:28:03;0.57;;;0.45;;
7051;SDS011;3567;52.444;13.556;2023-04-24T07:30:29;0.98;;;0.40;;
7051;SDS011;3567;52.444;13.556;2023-04-24T07:32:55;2.80;;;2.17;;
7051;SDS011;3567;52.444;13.556;2023-04-24T07:35:20;1.60;;;0.70;;
7051;SDS011;3567;52.444;13.556;2023-04-24T07:37:46;0.73;;;0.50;;
7051;SDS011;3567;52.444;13.556;2023-04-24T07:40:14;0.50;;;0.50;;
7051;SDS011;3567;52.444;13.556;2023-04-24T07:42:40;1.85;;;0.43;;
7051;SDS011;3567;52.444;13.556;2023-04-24T07:45:06;0.45;;;0.45;;
7051;SDS011;3567;52.444;13.556;2023-04-24T07:47:32;1.05;;;0.52;;
7051;SDS011;3567;52.444;13.556;2023-04-24T07:49:58;1.20;;;0.30;;
7051;SDS011;3567;52.444;13.556;2023-04-24T07:52:24;1.40;;;0.60;;
7051;SDS011;3567;52.444;13.556;2023-04-24T07:54:49;1.38;;;0.40;;
7051;SDS011;3567;52.444;13.556;2023-04-24T07:57:15;0.30;;;0.30;;
7051;SDS011;3567;52.444;13.556;2023-04-24T07:59:41;0.32;;;0.32;;
7051;SDS011;3567;52.444;13.556;2023-04-24T08:02:06;5.20;;;3.63;;
7051;SDS011;3567;52.444;13.556;2023-04-24T08:04:32;1.20;;;0.70;;
7051;SDS011;3567;52.444;13.556;2023-04-24T08:06:58;1.40;;;0.30;;
7051;SDS011;3567;52.444;13.556;2023-04-24T08:09:23;0.73;;;0.45;;
7051;SDS011;3567;52.444;13.556;2023-04-24T08:11:49;0.60;;;0.35;;
7051;SDS011;3567;52.444;13.556;2023-04-24T08:14:14;0.30;;;0.30;;
7051;SDS011;3567;52.444;13.556;2023-04-24T08:16:40;0.40;;;0.40;;
7051;SDS011;3567;52.444;13.556;2023-04-24T08:19:06;3.05;;;0.40;;
7051;SDS011;3567;52.444;13.556;2023-04-24T08:21:31;0.65;;;0.40;;
7051;SDS011;3567;52.444;13.556;2023-04-24T08:23:57;3.50;;;0.28;;
7051;SDS011;3567;52.444;13.556;2023-04-24T08:26:22;1.38;;;0.50;;
7051;SDS011;3567;52.444;13.556;2023-04-24T08:28:47;1.23;;;0.52;;
7051;SDS011;3567;52.444;13.556;2023-04-24T08:31:13;3.92;;;0.40;;
7051;SDS011;3567;52.444;13.556;2023-04-24T08:33:38;0.85;;;0.30;;
7051;SDS011;3567;52.444;13.556;2023-04-24T08:36:07;0.68;;;0.30;;
7051;SDS011;3567;52.444;13.556;2023-04-24T08:38:33;1.55;;;0.28;;
7051;SDS011;3567;52.444;13.556;2023-04-24T08:40:59;1.85;;;0.50;;
7051;SDS011;3567;52.444;13.556;2023-04-24T08:43:26;0.30;;;0.30;;
7051;SDS011;3567;52.444;13.556;2023-04-24T08:45:52;5.32;;;0.50;;
7051;SDS011;3567;52.444;13.556;2023-04-24T08:48:18;1.75;;;0.40;;
7051;SDS011;3567;52.444;13.556;2023-04-24T08:50:43;0.50;;;0.30;;
7051;SDS011;3567;52.444;13.556;2023-04-24T08:53:09;0.47;;;0.30;;
7051;SDS011;3567;52.444;13.556;2023-04-24T08:55:35;1.08;;;0.30;;
7051;SDS011;3567;52.444;13.556;2023-04-24T08:58:02;0.40;;;0.40;;
7051;SDS011;3567;52.444;13.556;2023-04-24T09:00:28;1.95;;;0.60;;
7051;SDS011;3567;52.444;13.556;2023-04-24T09:02:54;0.28;;;0.28;;
7051;SDS011;3567;52.444;13.556;2023-04-24T09:05:20;0.30;;;0.30;;
7051;SDS011;3567;52.444;13.556;2023-04-24T09:07:53;2.17;;;0.50;;
7051;SDS011;3567;52.444;13.556;2023-04-24T09:10:20;3.20;;;0.40;;
7051;SDS011;3567;52.444;13.556;2023-04-24T09:12:46;1.98;;;0.30;;
7051;SDS011;3567;52.444;13.556;2023-04-24T09:15:12;0.95;;;0.70;;
7051;SDS011;3567;52.444;13.556;2023-04-24T09:17:38;0.40;;;0.40;;
7051;SDS011;3567;52.444;13.556;2023-04-24T09:20:04;1.08;;;0.35;;
7051;SDS011;3567;52.444;13.556;2023-04-24T09:22:30;0.60;;;0.20;;
7051;SDS011;3567;52.444;13.556;2023-04-24T09:25:08;0.35;;;0.35;;
7051;SDS011;3567;52.444;13.556;2023-04-24T09:27:34;0.57;;;0.30;;
7051;SDS011;3567;52.444;13.556;2023-04-24T09:30:00;0.50;;;0.30;;
7051;SDS011;3567;52.444;13.556;2023-04-24T09:32:26;0.45;;;0.30;;
7051;SDS011;3567;52.444;13.556;2023-04-24T09:35:12;1.38;;;0.30;;
7051;SDS011;3567;52.444;13.556;2023-04-24T09:37:41;0.50;;;0.40;;
7051;SDS011;3567;52.444;13.556;2023-04-24T09:40:11;0.68;;;0.47;;
7051;SDS011;3567;52.444;13.556;2023-04-24T09:42:44;1.13;;;0.40;;
7051;SDS011;3567;52.444;13.556;2023-04-24T09:45:20;1.10;;;0.28;;
7051;SDS011;3567;52.444;13.556;2023-04-24T09:47:45;0.60;;;0.50;;
7051;SDS011;3567;52.444;13.556;2023-04-24T09:50:17;0.68;;;0.40;;
7051;SDS011;3567;52.444;13.556;2023-04-24T09:52:43;0.70;;;0.57;;
7051;SDS011;3567;52.444;13.556;2023-04-24T09:55:11;1.25;;;0.60;;
7051;SDS011;3567;52.444;13.556;2023-04-24T09:57:46;0.73;;;0.40;;
7051;SDS011;3567;52.444;13.556;2023-04-24T10:00:22;1.17;;;0.40;;
7051;SDS011;3567;52.444;13.556;2023-04-24T10:02:50;0.30;;;0.30;;
7051;SDS011;3567;52.444;13.556;2023-04-24T10:05:19;2.10;;;0.40;;
7051;SDS011;3567;52.444;13.556;2023-04-24T10:07:48;4.57;;;0.40;;
7051;SDS011;3567;52.444;13.556;2023-04-24T10:10:14;0.38;;;0.38;;
7051;SDS011;3567;52.444;13.556;2023-04-24T10:12:40;0.52;;;0.35;;
7051;SDS011;3567;52.444;13.556;2023-04-24T10:15:06;0.65;;;0.40;;
7051;SDS011;3567;52.444;13.556;2023-04-24T10:17:32;1.55;;;0.30;;
7051;SDS011;3567;52.444;13.556;2023-04-24T10:19:58;0.50;;;0.38;;
7051;SDS011;3567;52.444;13.556;2023-04-24T10:22:26;0.73;;;0.43;;
7051;SDS011;3567;52.444;13.556;2023-04-24T10:24:52;0.95;;;0.40;;
7051;SDS011;3567;52.444;13.556;2023-04-24T10:27:17;1.00;;;0.40;;
7051;SDS011;3567;52.444;13.556;2023-04-24T10:29:45;2.83;;;0.32;;
7051;SDS011;3567;52.444;13.556;2023-04-24T10:32:12;0.63;;;0.40;;
7051;SDS011;3567;52.444;13.556;2023-04-24T10:34:38;1.80;;;0.90;;
7051;SDS011;3567;52.444;13.556;2023-04-24T10:37:03;3.30;;;0.57;;
7051;SDS011;3567;52.444;13.556;2023-04-24T10:39:29;0.98;;;0.40;;
7051;SDS011;3567;52.444;13.556;2023-04-24T10:41:55;1.80;;;0.32;;
7051;SDS011;3567;52.444;13.556;2023-04-24T10:44:22;0.82;;;0.50;;
7051;SDS011;3567;52.444;13.556;2023-04-24T10:46:52;1.30;;;0.40;;
7051;SDS011;3567;52.444;13.556;2023-04-24T10:49:27;0.75;;;0.40;;
7051;SDS011;3567;52.444;13.556;2023-04-24T10:51:54;3.30;;;0.60;;
7051;SDS011;3567;52.444;13.556;2023-04-24T10:54:33;0.50;;;0.50;;
7051;SDS011;3567;52.444;13.556;2023-04-24T10:59:44;1.58;;;0.50;;
7051;SDS011;3567;52.444;13.556;2023-04-24T11:02:10;1.02;;;0.47;;
7051;SDS011;3567;52.444;13.556;2023-04-24T11:04:35;1.67;;;0.25;;
7051;SDS011;3567;52.444;13.556;2023-04-24T11:07:02;0.60;;;0.30;;
7051;SDS011;3567;52.444;13.556;2023-04-24T11:09:29;0.73;;;0.30;;
7051;SDS011;3567;52.444;13.556;2023-04-24T11:12:02;2.58;;;0.30;;
7051;SDS011;3567;52.444;13.556;2023-04-24T11:20:00;3.17;;;0.82;;
7051;SDS011;3567;52.444;13.556;2023-04-24T11:22:26;0.65;;;0.35;;
7051;SDS011;3567;52.444;13.556;2023-04-24T11:24:57;0.45;;;0.20;;
7051;SDS011;3567;52.444;13.556;2023-04-24T11:27:27;0.50;;;0.30;;
7051;SDS011;3567;52.444;13.556;2023-04-24T11:30:13;1.52;;;0.52;;
7051;SDS011;3567;52.444;13.556;2023-04-24T11:32:43;0.88;;;0.20;;
7051;SDS011;3567;52.444;13.556;2023-04-24T11:35:15;1.30;;;0.60;;
7051;SDS011;3567;52.444;13.556;2023-04-24T11:37:46;3.17;;;0.70;;
7051;SDS011;3567;52.444;13.556;2023-04-24T11:40:14;1.27;;;0.50;;
7051;SDS011;3567;52.444;13.556;2023-04-24T11:42:41;0.70;;;0.55;;
7051;SDS011;3567;52.444;13.556;2023-04-24T11:45:09;6.78;;;1.90;;
7051;SDS011;3567;52.444;13.556;2023-04-24T11:47:36;1.60;;;1.50;;
7051;SDS011;3567;52.444;13.556;2023-04-24T11:50:03;1.33;;;1.23;;
7051;SDS011;3567;52.444;13.556;2023-04-24T11:52:30;2.60;;;2.47;;
7051;SDS011;3567;52.444;13.556;2023-04-24T11:54:56;2.65;;;2.55;;
7051;SDS011;3567;52.444;13.556;2023-04-24T11:57:23;4.15;;;3.70;;
7051;SDS011;3567;52.444;13.556;2023-04-24T11:59:51;4.13;;;3.92;;
7051;SDS011;3567;52.444;13.556;2023-04-24T12:02:23;4.38;;;4.18;;
7051;SDS011;3567;52.444;13.556;2023-04-24T12:04:51;4.43;;;4.13;;
7051;SDS011;3567;52.444;13.556;2023-04-24T12:07:17;4.20;;;3.90;;
7051;SDS011;3567;52.444;13.556;2023-04-24T12:12:08;2.78;;;2.58;;
7051;SDS011;3567;52.444;13.556;2023-04-24T12:14:44;1.75;;;1.65;;
7051;SDS011;3567;52.444;13.556;2023-04-24T12:17:14;1.63;;;1.30;;
7051;SDS011;3567;52.444;13.556;2023-04-24T12:19:50;0.85;;;0.85;;
7051;SDS011;3567;52.444;13.556;2023-04-24T12:22:16;0.85;;;0.80;;
7051;SDS011;3567;52.444;13.556;2023-04-24T12:24:57;0.52;;;0.52;;
7051;SDS011;3567;52.444;13.556;2023-04-24T12:27:33;1.85;;;0.73;;
7051;SDS011;3567;52.444;13.556;2023-04-24T12:29:59;2.53;;;0.88;;
7051;SDS011;3567;52.444;13.556;2023-04-24T12:32:26;1.00;;;0.70;;
7051;SDS011;3567;52.444;13.556;2023-04-24T12:34:53;0.70;;;0.70;;
7051;SDS011;3567;52.444;13.556;2023-04-24T12:37:19;1.05;;;0.60;;
7051;SDS011;3567;52.444;13.556;2023-04-24T12:40:06;0.57;;;0.50;;
7051;SDS011;3567;52.444;13.556;2023-04-24T12:42:34;0.70;;;0.38;;
7051;SDS011;3567;52.444;13.556;2023-04-24T12:45:01;0.40;;;0.40;;
7051;SDS011;3567;52.444;13.556;2023-04-24T12:47:30;0.40;;;0.40;;
7051;SDS011;3567;52.444;13.556;2023-04-24T12:49:56;0.77;;;0.47;;
7051;SDS011;3567;52.444;13.556;2023-04-24T12:52:24;0.30;;;0.30;;
7051;SDS011;3567;52.444;13.556;2023-04-24T12:54:54;1.30;;;0.40;;
7051;SDS011;3567;52.444;13.556;2023-04-24T12:57:24;0.28;;;0.28;;
7051;SDS011;3567;52.444;13.556;2023-04-24T12:59:52;2.38;;;0.47;;
7051;SDS011;3567;52.444;13.556;2023-04-24T13:02:19;1.88;;;0.40;;
7051;SDS011;3567;52.444;13.556;2023-04-24T13:04:45;1.27;;;0.30;;
7051;SDS011;3567;52.444;13.556;2023-04-24T13:07:12;2.30;;;0.47;;
7051;SDS011;3567;52.444;13.556;2023-04-24T13:09:40;0.82;;;0.35;;
7051;SDS011;3567;52.444;13.556;2023-04-24T13:12:07;2.72;;;0.45;;
7051;SDS011;3567;52.444;13.556;2023-04-24T13:14:33;0.57;;;0.52;;
7051;SDS011;3567;52.444;13.556;2023-04-24T13:16:58;1.80;;;0.50;;
7051;SDS011;3567;52.444;13.556;2023-04-24T13:19:24;0.20;;;0.20;;
7051;SDS011;3567;52.444;13.556;2023-04-24T13:21:56;0.75;;;0.40;;
7051;SDS011;3567;52.444;13.556;2023-04-24T13:24:25;2.97;;;0.40;;
7051;SDS011;3567;52.444;13.556;2023-04-24T13:26:51;0.50;;;0.50;;
7051;SDS011;3567;52.444;13.556;2023-04-24T13:29:19;0.30;;;0.30;;
7051;SDS011;3567;52.444;13.556;2023-04-24T13:31:49;7.88;;;5.63;;
7051;SDS011;3567;52.444;13.556;2023-04-24T13:34:17;7.07;;;6.53;;
7051;SDS011;3567;52.444;13.556;2023-04-24T13:36:42;4.85;;;4.05;;
7051;SDS011;3567;52.444;13.556;2023-04-24T13:39:08;0.80;;;0.80;;
7051;SDS011;3567;52.444;13.556;2023-04-24T13:41:34;1.85;;;0.50;;
7051;SDS011;3567;52.444;13.556;2023-04-24T13:44:00;29.58;;;21.08;;
7051;SDS011;3567;52.444;13.556;2023-04-24T13:46:26;13.32;;;11.93;;
7051;SDS011;3567;52.444;13.556;2023-04-24T13:48:51;5.68;;;5.20;;
7051;SDS011;3567;52.444;13.556;2023-04-24T13:51:17;1.25;;;1.20;;
7051;SDS011;3567;52.444;13.556;2023-04-24T13:53:42;4.22;;;2.95;;
7051;SDS011;3567;52.444;13.556;2023-04-24T13:56:08;0.57;;;0.35;;
7051;SDS011;3567;52.444;13.556;2023-04-24T13:58:34;0.95;;;0.32;;
7051;SDS011;3567;52.444;13.556;2023-04-24T14:01:01;0.40;;;0.30;;
7051;SDS011;3567;52.444;13.556;2023-04-24T14:03:28;2.75;;;0.32;;
7051;SDS011;3567;52.444;13.556;2023-04-24T14:05:53;0.35;;;0.35;;
7051;SDS011;3567;52.444;13.556;2023-04-24T14:08:19;0.93;;;0.40;;
7051;SDS011;3567;52.444;13.556;2023-04-24T14:10:44;0.60;;;0.30;;
7051;SDS011;3567;52.444;13.556;2023-04-24T14:13:10;1.10;;;0.32;;
7051;SDS011;3567;52.444;13.556;2023-04-24T14:15:35;0.68;;;0.20;;
7051;SDS011;3567;52.444;13.556;2023-04-24T14:18:01;0.80;;;0.30;;
7051;SDS011;3567;52.444;13.556;2023-04-24T14:20:28;1.00;;;0.30;;
7051;SDS011;3567;52.444;13.556;2023-04-24T14:22:53;0.30;;;0.30;;
7051;SDS011;3567;52.444;13.556;2023-04-24T14:25:18;0.40;;;0.40;;
7051;SDS011;3567;52.444;13.556;2023-04-24T14:27:44;0.40;;;0.40;;
7051;SDS011;3567;52.444;13.556;2023-04-24T14:30:10;0.82;;;0.40;;
7051;SDS011;3567;52.444;13.556;2023-04-24T14:32:38;0.30;;;0.30;;
7051;SDS011;3567;52.444;13.556;2023-04-24T14:35:04;0.68;;;0.52;;
7051;SDS011;3567;52.444;13.556;2023-04-24T14:37:31;1.35;;;0.32;;
7051;SDS011;3567;52.444;13.556;2023-04-24T14:39:56;0.50;;;0.47;;
7051;SDS011;3567;52.444;13.556;2023-04-24T14:42:22;0.30;;;0.30;;
7051;SDS011;3567;52.444;13.556;2023-04-24T14:44:47;1.65;;;0.43;;
7051;SDS011;3567;52.444;13.556;2023-04-24T14:47:12;2.40;;;0.40;;
7051;SDS011;3567;52.444;13.556;2023-04-24T14:49:38;0.30;;;0.30;;
7051;SDS011;3567;52.444;13.556;2023-04-24T14:52:03;0.68;;;0.40;;
7051;SDS011;3567;52.444;13.556;2023-04-24T14:54:29;2.28;;;0.60;;
7051;SDS011;3567;52.444;13.556;2023-04-24T14:56:55;2.05;;;0.50;;
7051;SDS011;3567;52.444;13.556;2023-04-24T14:59:22;1.10;;;0.50;;
7051;SDS011;3567;52.444;13.556;2023-04-24T15:01:47;1.95;;;0.40;;
7051;SDS011;3567;52.444;13.556;2023-04-24T15:04:13;3.45;;;0.60;;
7051;SDS011;3567;52.444;13.556;2023-04-24T15:06:38;1.85;;;0.50;;